Time;durP1;ratioP1;P1;durP2;ratioP2;P2;SDS_P1;SDS_P2;PMS_P1;PMS_P2;Temp;Humidity;BMP_temperature;BMP_pressure;BME280_temperature;BME280_humidity;BME280_pressure;Samples;Min_cycle;Max_cycle;Signal;HPM_P1;HPM_P2
2023/08/10 00:02:06;;;;;;;5.38;2.17;;;;;;;15.40;88.98;101552.34;5013402;28;20152;-61
2023/08/10 00:04:31;;;;;;;3.83;1.95;;;;;;;15.40;89.24;101560.16;5012352;28;20069;-61
2023/08/10 00:06:56;;;;;;;4.07;1.83;;;;;;;15.42;88.75;101547.09;5021076;28;20041;-61
2023/08/10 00:09:22;;;;;;;3.75;2.30;;;;;;;15.44;89.08;101553.13;5014519;28;20037;-64
2023/08/10 00:11:47;;;;;;;4.30;2.50;;;;;;;15.44;88.74;101551.38;5014616;28;20044;-61
2023/08/10 00:14:12;;;;;;;5.97;2.20;;;;;;;15.44;89.03;101553.13;5018739;28;20510;-61
2023/08/10 00:16:38;;;;;;;3.45;1.90;;;;;;;15.43;88.88;101559.25;5020032;28;20112;-61
2023/08/10 00:19:04;;;;;;;4.95;2.30;;;;;;;15.43;88.37;101554.03;5021314;28;20050;-61
2023/08/10 00:21:30;;;;;;;4.63;2.28;;;;;;;15.40;88.35;101548.88;5021212;28;20103;-61
2023/08/10 00:23:56;;;;;;;5.22;2.45;;;;;;;15.36;88.30;101553.25;5022254;28;20032;-62
2023/08/10 00:26:25;;;;;;;5.97;2.60;;;;;;;15.31;88.71;101549.88;4998942;28;20045;-61
2023/08/10 00:28:51;;;;;;;5.40;2.25;;;;;;;15.27;88.61;101555.16;5019801;28;20045;-61
2023/08/10 00:31:16;;;;;;;6.80;2.33;;;;;;;15.21;88.61;101553.50;5021910;28;20041;-61
2023/08/10 00:33:42;;;;;;;3.65;1.90;;;;;;;15.17;89.10;101557.00;5017106;28;20048;-61
2023/08/10 00:36:07;;;;;;;5.15;1.90;;;;;;;15.14;89.26;101554.47;5000499;28;20047;-61
2023/08/10 00:38:34;;;;;;;6.07;2.42;;;;;;;15.10;89.42;101555.41;5004668;28;20034;-61
2023/08/10 00:41:00;;;;;;;3.88;2.20;;;;;;;15.08;89.45;101555.41;5016691;28;20041;-61
2023/08/10 00:43:26;;;;;;;3.60;1.90;;;;;;;15.07;89.33;101555.44;5018681;28;20041;-61
2023/08/10 00:45:52;;;;;;;3.08;2.03;;;;;;;15.04;89.35;101556.34;4999768;28;20091;-61
2023/08/10 00:48:17;;;;;;;2.80;2.22;;;;;;;15.04;89.22;101550.28;5017493;28;20061;-61
2023/08/10 00:50:43;;;;;;;4.97;2.13;;;;;;;15.03;89.80;101552.00;5017571;28;20041;-61
2023/08/10 00:53:09;;;;;;;5.70;1.95;;;;;;;15.03;89.87;101554.63;5013875;28;20045;-62
2023/08/10 00:55:35;;;;;;;6.53;2.08;;;;;;;15.03;89.52;101562.44;5012103;28;20033;-62
2023/08/10 00:58:00;;;;;;;4.05;2.05;;;;;;;15.06;89.69;101554.59;5016091;28;20050;-61
2023/08/10 01:00:26;;;;;;;3.65;2.20;;;;;;;15.08;89.41;101564.97;5016054;28;20796;-61
2023/08/10 01:02:52;;;;;;;2.97;1.70;;;;;;;15.06;89.38;101556.31;5017594;28;20375;-62
2023/08/10 01:05:17;;;;;;;4.82;2.25;;;;;;;15.07;89.52;101556.31;5018349;28;20036;-61
2023/08/10 01:07:53;;;;;;;3.47;2.20;;;;;;;15.11;88.59;101563.19;5013933;28;20517;-61
2023/08/10 01:10:24;;;;;;;4.28;2.20;;;;;;;15.14;88.36;101565.72;5011802;28;20679;-61
2023/08/10 01:13:20;;;;;;;6.65;2.72;;;;;;;15.18;87.61;101572.63;5013721;28;20696;-61
2023/08/10 01:15:55;;;;;;;3.15;1.85;;;;;;;15.22;87.36;101560.44;5016240;28;20072;-61
2023/08/10 01:18:26;;;;;;;3.00;2.10;;;;;;;15.27;87.37;101570.78;5010868;28;20581;-62
2023/08/10 01:20:53;;;;;;;6.03;2.38;;;;;;;15.30;87.04;101562.91;5020052;28;20029;-61
2023/08/10 01:23:40;;;;;;;3.95;1.63;;;;;;;15.32;87.89;101564.59;5016539;28;20025;-61
2023/08/10 01:26:08;;;;;;;3.85;2.28;;;;;;;15.33;87.85;101558.53;5010642;28;20041;-61
2023/08/10 01:28:34;;;;;;;6.80;2.45;;;;;;;15.35;87.85;101563.69;5010320;28;20037;-61
2023/08/10 01:31:00;;;;;;;4.75;2.53;;;;;;;15.37;87.49;101570.63;5011724;28;20048;-61
2023/08/10 01:33:26;;;;;;;4.13;2.00;;;;;;;15.36;86.89;101566.28;5011996;28;20102;-61
2023/08/10 01:35:55;;;;;;;4.35;2.05;;;;;;;15.37;86.71;101568.03;5012901;28;20038;-62
2023/08/10 01:38:20;;;;;;;6.65;2.25;;;;;;;15.35;86.68;101574.97;5015041;28;20037;-62
2023/08/10 01:40:47;;;;;;;4.10;1.70;;;;;;;15.34;86.80;101575.03;5016087;28;20039;-62
2023/08/10 01:43:13;;;;;;;3.40;2.15;;;;;;;15.35;87.24;101569.78;5015249;28;20044;-61
2023/08/10 01:45:43;;;;;;;3.95;2.13;;;;;;;15.33;86.74;101568.06;5013724;28;20041;-62
2023/08/10 01:48:17;;;;;;;5.80;2.55;;;;;;;15.28;86.84;101567.28;5015656;28;20042;-62
2023/08/10 01:50:45;;;;;;;4.80;2.33;;;;;;;15.21;86.82;101570.00;5013281;28;20061;-62
2023/08/10 01:53:15;;;;;;;4.57;2.30;;;;;;;15.15;86.90;101562.25;5010461;28;20033;-61
2023/08/10 01:55:41;;;;;;;3.42;2.00;;;;;;;15.13;87.25;101573.59;5009971;28;20393;-62
2023/08/10 01:58:07;;;;;;;6.00;2.30;;;;;;;15.11;87.73;101568.38;5010312;28;20037;-61
2023/08/10 02:00:37;;;;;;;7.70;2.30;;;;;;;15.11;87.93;101571.00;5015807;28;20099;-61
2023/08/10 02:03:03;;;;;;;3.67;2.20;;;;;;;15.11;87.90;101563.19;5015390;28;20743;-62
2023/08/10 02:05:28;;;;;;;4.07;2.55;;;;;;;15.13;87.57;101578.78;5021754;28;20112;-62
2023/08/10 02:07:54;;;;;;;3.53;1.85;;;;;;;15.15;87.79;101577.03;5009971;28;20764;-62
2023/08/10 02:10:19;;;;;;;4.30;2.03;;;;;;;15.15;87.77;101577.88;5014752;28;20037;-62
2023/08/10 02:12:44;;;;;;;3.85;2.33;;;;;;;15.16;88.11;101574.41;5019708;28;20038;-62
2023/08/10 02:15:12;;;;;;;4.25;2.30;;;;;;;15.19;87.98;101578.72;5018727;28;20048;-62
2023/08/10 02:17:38;;;;;;;3.05;2.05;;;;;;;15.20;87.51;101575.19;5015815;28;20124;-62
2023/08/10 02:20:09;;;;;;;4.18;2.13;;;;;;;15.23;87.38;101582.13;5019322;28;20061;-62
2023/08/10 02:22:34;;;;;;;5.05;2.03;;;;;;;15.23;87.44;101578.63;5015511;28;20099;-62
2023/08/10 02:25:00;;;;;;;5.68;2.05;;;;;;;15.23;87.30;101582.13;5013318;28;20739;-62
2023/08/10 02:27:25;;;;;;;4.20;2.25;;;;;;;15.24;86.73;101571.69;5013978;28;20038;-62
2023/08/10 02:29:50;;;;;;;3.65;2.28;;;;;;;15.24;86.91;101566.47;5012348;28;20054;-62
2023/08/10 02:32:17;;;;;;;4.18;2.22;;;;;;;15.25;86.74;101575.16;5007192;28;20057;-62
2023/08/10 02:34:42;;;;;;;3.78;2.05;;;;;;;15.23;86.43;101570.81;5016176;28;20049;-62
2023/08/10 02:37:08;;;;;;;7.35;1.90;;;;;;;15.21;86.91;101571.72;5012551;28;20045;-62
2023/08/10 02:39:33;;;;;;;4.13;2.63;;;;;;;15.19;86.93;101569.16;5015903;28;20036;-62
2023/08/10 02:41:59;;;;;;;2.53;1.70;;;;;;;15.13;87.09;101574.47;5021097;28;20029;-62
2023/08/10 02:44:24;;;;;;;3.35;1.98;;;;;;;15.07;87.24;101571.06;5019999;28;20037;-62
2023/08/10 02:46:49;;;;;;;3.60;2.08;;;;;;;15.00;87.37;101570.28;5015470;28;20048;-61
2023/08/10 02:49:15;;;;;;;3.35;1.70;;;;;;;14.92;87.64;101576.47;5014408;28;20037;-62
2023/08/10 02:51:40;;;;;;;4.72;2.28;;;;;;;14.82;88.33;101570.53;5018122;28;20069;-62
2023/08/10 02:54:06;;;;;;;3.38;2.10;;;;;;;14.74;88.22;101568.91;5016382;28;20042;-62
2023/08/10 02:56:31;;;;;;;4.40;2.17;;;;;;;14.64;88.48;101571.63;5019034;28;20037;-62
2023/08/10 02:58:57;;;;;;;3.78;2.10;;;;;;;14.58;88.59;101565.63;5019437;28;20052;-61
2023/08/10 03:01:22;;;;;;;4.03;2.00;;;;;;;14.50;89.25;101570.94;5016413;28;20462;-62
2023/08/10 03:03:48;;;;;;;4.07;1.85;;;;;;;14.45;89.29;101569.25;5015009;28;20064;-61
2023/08/10 03:06:13;;;;;;;3.47;1.90;;;;;;;14.40;89.46;101569.31;5011615;28;20049;-62
2023/08/10 03:08:38;;;;;;;2.67;2.13;;;;;;;14.35;90.11;101578.88;5014794;28;20503;-62
2023/08/10 03:11:04;;;;;;;4.15;2.80;;;;;;;14.27;90.82;101575.50;5009707;28;20522;-62
2023/08/10 03:13:29;;;;;;;4.95;2.10;;;;;;;14.22;90.89;101577.25;5011854;28;20041;-62
2023/08/10 03:15:55;;;;;;;3.17;2.05;;;;;;;14.18;91.31;101577.31;5009640;28;20104;-61
2023/08/10 03:18:21;;;;;;;4.38;2.13;;;;;;;14.13;91.69;101577.34;5010782;28;20073;-65
2023/08/10 03:20:47;;;;;;;5.50;2.20;;;;;;;14.09;91.96;101579.16;5012187;28;20788;-64
2023/08/10 03:23:12;;;;;;;4.10;2.13;;;;;;;14.04;91.93;101591.31;5017864;28;20036;-65
2023/08/10 03:25:37;;;;;;;5.97;2.67;;;;;;;14.01;92.24;101593.94;5013980;28;20079;-64
2023/08/10 03:28:03;;;;;;;5.28;2.20;;;;;;;14.00;92.59;101593.97;5013262;28;20750;-65
2023/08/10 03:30:28;;;;;;;5.38;2.80;;;;;;;13.96;92.88;101592.25;5007302;28;20065;-64
2023/08/10 03:32:54;;;;;;;4.82;2.17;;;;;;;13.94;92.69;101596.63;5017173;28;20040;-64
2023/08/10 03:35:20;;;;;;;5.38;2.10;;;;;;;13.89;93.01;101601.84;5010583;28;20433;-65
2023/08/10 03:37:45;;;;;;;3.70;1.92;;;;;;;13.90;93.16;101600.97;5013512;28;20053;-65
2023/08/10 03:40:11;;;;;;;4.45;2.40;;;;;;;13.91;92.48;101601.84;4997987;28;20041;-65
2023/08/10 03:42:36;;;;;;;4.10;2.15;;;;;;;13.90;92.40;101606.16;5011968;28;20037;-65
2023/08/10 03:45:02;;;;;;;3.03;2.17;;;;;;;13.89;92.28;101601.84;5003845;28;20068;-65
2023/08/10 03:47:27;;;;;;;4.97;2.25;;;;;;;13.86;92.40;101603.63;5017554;28;20038;-66
2023/08/10 03:49:53;;;;;;;3.85;2.10;;;;;;;13.81;92.43;101606.25;5010781;28;20483;-65
2023/08/10 03:52:18;;;;;;;4.32;3.13;;;;;;;13.82;91.59;101601.91;5002640;28;20053;-65
2023/08/10 03:54:43;;;;;;;5.93;2.10;;;;;;;13.79;91.43;101599.34;5009756;28;20048;-65
2023/08/10 03:57:09;;;;;;;3.15;2.33;;;;;;;13.77;91.27;101609.72;5010892;28;20033;-65
2023/08/10 03:59:34;;;;;;;3.97;2.40;;;;;;;13.76;91.45;101612.34;5011191;28;20048;-65
2023/08/10 04:02:00;;;;;;;3.13;2.15;;;;;;;13.77;90.94;101621.88;5009743;28;20053;-65
2023/08/10 04:04:25;;;;;;;5.57;2.47;;;;;;;13.75;90.81;101621.88;4995128;28;20038;-65
2023/08/10 04:06:50;;;;;;;5.95;2.40;;;;;;;13.75;90.80;101619.28;5018138;28;20562;-64
2023/08/10 04:09:16;;;;;;;4.05;2.22;;;;;;;13.75;90.71;101624.47;5009524;28;20045;-65
2023/08/10 04:11:41;;;;;;;6.63;3.53;;;;;;;13.75;90.57;101631.41;4998912;28;20859;-65
2023/08/10 04:14:06;;;;;;;5.15;3.22;;;;;;;13.72;91.06;101632.31;5015917;28;20045;-65
2023/08/10 04:16:32;;;;;;;5.28;3.15;;;;;;;13.70;91.08;101630.59;5010069;28;20749;-65
2023/08/10 04:18:57;;;;;;;5.72;2.83;;;;;;;13.67;91.14;101625.41;5012791;28;20041;-65
2023/08/10 04:21:23;;;;;;;6.38;3.20;;;;;;;13.67;91.48;101620.22;5015652;28;20041;-64
2023/08/10 04:23:48;;;;;;;4.78;3.03;;;;;;;13.69;91.15;101624.53;5010185;28;20040;-64
2023/08/10 04:26:14;;;;;;;6.13;3.03;;;;;;;13.74;90.99;101629.72;5016727;28;20063;-65
2023/08/10 04:28:39;;;;;;;4.05;2.47;;;;;;;13.78;90.50;101623.59;5014076;28;20034;-65
2023/08/10 04:31:04;;;;;;;7.70;2.60;;;;;;;13.84;90.70;101631.34;5010883;28;20171;-65
2023/08/10 04:33:31;;;;;;;5.50;2.15;;;;;;;13.87;90.37;101634.78;5017433;28;20156;-64
2023/08/10 04:35:57;;;;;;;6.10;2.67;;;;;;;13.90;90.74;101634.75;5015027;28;20032;-65
2023/08/10 04:38:22;;;;;;;4.47;2.42;;;;;;;13.93;90.45;101642.53;5007295;28;20045;-65
2023/08/10 04:40:48;;;;;;;4.35;2.85;;;;;;;13.96;90.82;101636.44;5011556;28;20033;-65
2023/08/10 04:43:13;;;;;;;6.35;2.85;;;;;;;14.01;90.83;101634.66;5011509;28;20506;-64
2023/08/10 04:45:39;;;;;;;3.42;2.42;;;;;;;14.05;90.62;101642.44;5017175;28;20048;-66
2023/08/10 04:48:04;;;;;;;4.45;2.47;;;;;;;14.10;90.79;101634.56;5007792;28;20034;-64
2023/08/10 04:50:30;;;;;;;5.30;2.65;;;;;;;14.16;90.56;101644.09;5012265;28;20032;-65
2023/08/10 04:52:55;;;;;;;4.55;2.40;;;;;;;14.23;89.26;101645.75;5018446;28;20069;-65
2023/08/10 04:55:21;;;;;;;4.18;2.10;;;;;;;14.30;89.30;101650.88;5010403;28;20119;-65
2023/08/10 04:57:46;;;;;;;5.88;2.65;;;;;;;14.37;88.20;101651.66;5012275;28;20033;-64
2023/08/10 05:00:14;;;;;;;4.65;2.75;;;;;;;14.44;88.42;101645.56;5010045;28;20033;-65
2023/08/10 05:02:41;;;;;;;5.00;2.83;;;;;;;14.49;88.31;101644.63;5015545;28;20033;-65
2023/08/10 05:05:08;;;;;;;6.63;3.47;;;;;;;14.53;87.46;101643.75;5012280;28;20042;-65
2023/08/10 05:07:34;;;;;;;4.22;2.90;;;;;;;14.57;86.89;101642.81;4997167;28;20033;-65
2023/08/10 05:10:05;;;;;;;6.97;2.88;;;;;;;14.66;86.58;101642.72;5018381;28;20040;-64
2023/08/10 05:12:32;;;;;;;4.63;3.22;;;;;;;14.76;86.86;101642.59;5015577;28;20811;-64
2023/08/10 05:14:57;;;;;;;7.45;3.22;;;;;;;14.85;86.94;101637.28;5005133;28;20053;-65
2023/08/10 05:17:23;;;;;;;6.97;2.97;;;;;;;14.94;87.45;101643.25;5001711;28;20119;-66
2023/08/10 05:19:48;;;;;;;7.38;2.95;;;;;;;14.96;85.86;101627.63;5018544;28;20037;-65
2023/08/10 05:22:14;;;;;;;3.63;2.30;;;;;;;15.04;84.95;101636.19;5014072;28;20164;-65
2023/08/10 05:24:40;;;;;;;5.05;2.50;;;;;;;15.10;84.72;101636.13;5015757;28;20033;-65
2023/08/10 05:27:05;;;;;;;6.32;2.80;;;;;;;15.11;83.58;101641.28;5014425;28;20033;-65
2023/08/10 05:29:30;;;;;;;4.10;2.38;;;;;;;15.20;83.82;101633.38;5011983;28;20049;-65
2023/08/10 05:31:56;;;;;;;4.68;2.50;;;;;;;15.33;83.66;101635.81;5014273;28;20041;-66
2023/08/10 05:34:21;;;;;;;4.65;2.20;;;;;;;15.41;82.67;101636.53;4983729;28;20622;-66
2023/08/10 05:36:47;;;;;;;5.47;2.58;;;;;;;15.51;82.24;101641.63;5005239;28;20038;-66
2023/08/10 05:39:12;;;;;;;4.47;2.35;;;;;;;15.61;81.66;101639.75;5015330;28;20069;-65
2023/08/10 05:41:38;;;;;;;4.88;2.40;;;;;;;15.69;82.51;101644.00;5011576;28;20091;-66
2023/08/10 05:44:03;;;;;;;3.17;2.15;;;;;;;15.80;82.07;101635.13;5014393;28;20040;-65
2023/08/10 05:46:29;;;;;;;5.07;2.25;;;;;;;15.87;81.38;101637.63;5017170;28;20057;-66
2023/08/10 05:48:54;;;;;;;4.65;2.40;;;;;;;15.93;79.33;101629.69;5014238;28;20048;-66
2023/08/10 05:51:20;;;;;;;6.82;2.33;;;;;;;15.93;78.36;101634.91;5015458;28;20469;-66
2023/08/10 05:53:45;;;;;;;5.38;2.20;;;;;;;15.90;78.51;101628.88;5011731;28;20021;-67
2023/08/10 05:56:10;;;;;;;8.02;3.13;;;;;;;15.95;78.25;101633.13;5012988;28;20048;-66
2023/08/10 05:58:36;;;;;;;6.85;2.88;;;;;;;16.03;78.95;101639.06;5009541;28;20052;-65
2023/08/10 06:01:03;;;;;;;3.83;2.55;;;;;;;16.04;77.05;101626.91;4990921;28;20073;-66
2023/08/10 06:03:28;;;;;;;5.63;2.60;;;;;;;16.12;77.01;101633.69;5018439;28;20029;-66
2023/08/10 06:05:54;;;;;;;3.63;2.70;;;;;;;16.11;76.46;101628.53;5014645;28;20036;-65
2023/08/10 06:08:19;;;;;;;7.13;2.85;;;;;;;16.08;76.55;101631.19;5010702;28;20143;-66
2023/08/10 06:10:49;;;;;;;6.22;2.53;;;;;;;15.92;76.15;101632.31;5016762;28;20048;-65
2023/08/10 06:13:14;;;;;;;5.93;2.70;;;;;;;15.82;76.09;101635.97;5011125;28;20140;-67
2023/08/10 06:15:40;;;;;;;5.18;2.83;;;;;;;15.74;76.35;101641.28;5012825;28;20719;-66
2023/08/10 06:18:05;;;;;;;4.72;3.08;;;;;;;15.70;76.74;101644.84;5014785;28;20030;-66
2023/08/10 06:20:32;;;;;;;5.30;2.63;;;;;;;15.66;77.25;101648.38;5012972;28;20032;-66
2023/08/10 06:22:58;;;;;;;4.40;2.55;;;;;;;15.63;77.29;101646.69;5015408;28;20091;-66
2023/08/10 06:25:24;;;;;;;6.50;2.50;;;;;;;15.67;78.31;101653.56;5011736;28;20477;-65
2023/08/10 06:27:49;;;;;;;5.00;2.53;;;;;;;15.61;78.70;101653.63;5012229;28;20029;-67
2023/08/10 06:30:16;;;;;;;6.80;2.70;;;;;;;15.60;79.33;101656.25;5016179;28;20045;-66
2023/08/10 06:32:41;;;;;;;6.47;2.60;;;;;;;15.60;79.85;101659.72;5009635;28;20095;-66
2023/08/10 06:35:08;;;;;;;6.40;2.90;;;;;;;15.62;79.54;101659.69;5014926;28;20041;-67
2023/08/10 06:37:34;;;;;;;5.65;2.35;;;;;;;15.64;79.54;101656.22;5014218;28;20029;-66
2023/08/10 06:39:59;;;;;;;6.72;2.42;;;;;;;15.68;79.35;101660.50;5023021;28;20051;-67
2023/08/10 06:42:25;;;;;;;5.97;3.08;;;;;;;15.69;79.30;101653.56;5016018;28;20041;-67
2023/08/10 06:44:50;;;;;;;7.70;3.72;;;;;;;15.70;78.94;101663.94;5013150;28;20148;-66
2023/08/10 06:47:15;;;;;;;5.93;3.40;;;;;;;15.71;78.87;101672.63;5015934;28;20048;-67
2023/08/10 06:49:41;;;;;;;6.82;3.10;;;;;;;15.75;79.22;101672.56;5012770;28;20111;-66
2023/08/10 06:52:06;;;;;;;7.05;3.63;;;;;;;15.76;79.05;101676.03;5015003;28;20065;-67
2023/08/10 06:54:32;;;;;;;9.20;4.00;;;;;;;15.77;78.01;101672.53;5010766;28;20046;-66
2023/08/10 06:56:57;;;;;;;11.98;4.55;;;;;;;15.81;76.95;101668.13;5011795;28;20032;-68
2023/08/10 06:59:23;;;;;;;8.13;4.13;;;;;;;15.87;77.36;101679.34;5019136;28;20041;-66
2023/08/10 07:01:48;;;;;;;7.15;4.13;;;;;;;15.88;78.41;101685.41;5015044;28;20133;-67
2023/08/10 07:04:14;;;;;;;4.93;3.83;;;;;;;15.94;78.27;101680.94;5019935;28;20107;-67
2023/08/10 07:06:39;;;;;;;7.00;3.78;;;;;;;15.99;77.61;101675.69;5017145;28;20098;-67
2023/08/10 07:09:05;;;;;;;11.10;3.95;;;;;;;16.07;77.99;101679.00;5018104;28;20083;-67
2023/08/10 07:11:31;;;;;;;9.13;4.38;;;;;;;16.13;78.05;101678.91;5008996;28;20044;-68
2023/08/10 07:13:56;;;;;;;7.80;4.35;;;;;;;16.19;77.92;101673.59;5008691;28;20038;-67
2023/08/10 07:16:22;;;;;;;7.63;3.80;;;;;;;16.23;77.26;101665.72;5013362;28;20048;-68
2023/08/10 07:18:47;;;;;;;6.55;3.40;;;;;;;16.29;77.33;101665.56;5015545;28;20045;-67
2023/08/10 07:21:12;;;;;;;8.82;4.05;;;;;;;16.36;76.88;101662.84;5011469;28;20163;-66
2023/08/10 07:23:38;;;;;;;7.40;3.88;;;;;;;16.43;77.32;101672.31;5015090;28;20025;-67
2023/08/10 07:26:03;;;;;;;11.35;3.97;;;;;;;16.50;77.22;101666.09;5018946;28;20041;-67
2023/08/10 07:28:28;;;;;;;8.15;3.75;;;;;;;16.56;76.89;101661.59;5016316;28;20696;-66
2023/08/10 07:30:54;;;;;;;11.10;4.50;;;;;;;16.64;75.26;101653.66;5013723;28;20532;-66
2023/08/10 07:33:20;;;;;;;6.68;3.80;;;;;;;16.68;75.51;101644.88;5012095;28;20041;-66
2023/08/10 07:35:46;;;;;;;7.90;3.90;;;;;;;16.74;74.46;101649.97;5018073;28;20034;-66
2023/08/10 07:38:16;;;;;;;7.07;3.50;;;;;;;16.79;74.20;101640.31;5016755;28;20060;-66
2023/08/10 07:40:42;;;;;;;4.18;3.10;;;;;;;16.83;74.62;101647.19;4991840;28;20045;-66
2023/08/10 07:43:07;;;;;;;5.72;3.15;;;;;;;16.90;74.15;101647.94;5011012;28;20062;-66
2023/08/10 07:45:33;;;;;;;8.52;3.00;;;;;;;16.96;74.28;101653.91;5013750;28;20805;-66
2023/08/10 07:47:58;;;;;;;7.05;3.38;;;;;;;17.04;73.59;101646.75;4996765;28;20146;-66
2023/08/10 07:50:26;;;;;;;8.40;3.83;;;;;;;17.07;73.45;101641.47;5009968;28;20112;-66
2023/08/10 07:52:51;;;;;;;7.43;2.90;;;;;;;17.16;72.50;101633.44;5011556;28;20038;-66
2023/08/10 07:55:16;;;;;;;6.50;2.42;;;;;;;17.24;72.67;101630.66;5002420;28;20072;-66
2023/08/10 07:57:42;;;;;;;6.70;3.05;;;;;;;17.31;70.65;101603.50;5007105;28;20040;-69
2023/08/10 08:00:11;;;;;;;5.88;2.70;;;;;;;17.39;69.71;101597.19;5005717;28;20049;-65
2023/08/10 08:02:37;;;;;;;5.10;2.47;;;;;;;17.48;68.92;101590.91;5014145;28;20033;-66
2023/08/10 08:05:03;;;;;;;5.25;2.35;;;;;;;17.57;68.77;101600.28;5013711;28;20522;-66
2023/08/10 08:07:32;;;;;;;6.47;2.45;;;;;;;17.56;68.43;101586.34;5013205;28;20052;-65
2023/08/10 08:09:58;;;;;;;8.02;1.90;;;;;;;17.59;67.27;101573.22;5019423;28;20087;-66
2023/08/10 08:12:26;;;;;;;3.88;1.77;;;;;;;17.62;66.96;101572.28;5017513;28;20038;-67
2023/08/10 08:14:52;;;;;;;6.45;1.90;;;;;;;17.63;65.31;101550.47;5020811;28;20030;-66
2023/08/10 08:17:17;;;;;;;4.35;2.17;;;;;;;17.68;63.00;101499.78;5016090;28;20067;-66
2023/08/10 08:19:42;;;;;;;3.65;1.83;;;;;;;17.70;62.95;101516.28;5010828;28;20158;-65
2023/08/10 08:22:08;;;;;;;5.47;1.77;;;;;;;17.86;63.86;101535.09;4998486;28;20052;-65
2023/08/10 08:24:33;;;;;;;4.82;1.55;;;;;;;17.90;63.78;101540.19;5012412;28;20069;-65
2023/08/10 08:26:59;;;;;;;5.13;1.90;;;;;;;17.92;61.69;101511.38;5007838;28;20125;-65
2023/08/10 08:29:24;;;;;;;6.07;1.70;;;;;;;17.94;61.13;101510.44;5012775;28;20048;-65
2023/08/10 08:31:49;;;;;;;4.68;2.08;;;;;;;17.98;60.73;101513.84;5013334;28;20069;-65
2023/08/10 08:34:15;;;;;;;6.05;1.95;;;;;;;18.03;60.10;101511.09;5017454;28;20045;-65
2023/08/10 08:36:40;;;;;;;4.47;2.00;;;;;;;18.12;60.21;101505.59;5019194;28;20077;-65
2023/08/10 08:39:06;;;;;;;5.40;1.80;;;;;;;18.14;60.04;101511.63;5010700;28;20042;-62
2023/08/10 08:41:36;;;;;;;4.53;2.00;;;;;;;18.21;60.91;101524.53;5011924;28;21489;-63
2023/08/10 08:44:06;;;;;;;5.50;2.17;;;;;;;18.29;60.38;101524.31;5014916;28;20037;-63
2023/08/10 08:46:33;;;;;;;5.05;2.28;;;;;;;18.44;59.77;101516.00;5010408;28;20040;-63
2023/08/10 08:49:00;;;;;;;8.50;2.50;;;;;;;18.43;57.42;101478.50;5007781;28;20083;-63
2023/08/10 08:51:26;;;;;;;5.53;2.15;;;;;;;18.52;57.24;101473.00;5019346;28;20041;-62
2023/08/10 08:53:53;;;;;;;7.07;2.50;;;;;;;18.59;57.63;101483.28;5015208;28;20033;-63
2023/08/10 08:56:18;;;;;;;5.63;2.55;;;;;;;18.70;56.60;101458.50;5016307;28;20100;-63
2023/08/10 08:58:44;;;;;;;5.07;1.92;;;;;;;18.75;56.55;101461.84;5019646;28;20051;-63
2023/08/10 09:01:12;;;;;;;4.22;1.73;;;;;;;18.78;56.61;101464.38;5018819;28;20037;-60
2023/08/10 09:03:38;;;;;;;6.78;2.08;;;;;;;18.84;55.22;101429.28;5012778;28;20033;-60
2023/08/10 09:06:04;;;;;;;4.20;2.08;;;;;;;18.88;55.49;101439.63;5024248;28;20037;-60
2023/08/10 09:08:29;;;;;;;4.57;1.67;;;;;;;18.93;56.40;101450.84;5017729;28;20041;-60
2023/08/10 09:10:55;;;;;;;6.38;1.67;;;;;;;18.99;53.26;101400.00;5018346;28;20037;-60
2023/08/10 09:13:23;;;;;;;5.35;1.77;;;;;;;19.11;52.07;101386.50;5013786;28;20042;-60
2023/08/10 09:16:03;;;;;;;3.42;1.63;;;;;;;19.22;52.16;101396.59;5013911;28;20411;-60
2023/08/10 09:18:33;;;;;;;8.35;2.03;;;;;;;19.29;53.47;101422.56;5012565;28;20041;-60
2023/08/10 09:21:18;;;;;;;3.40;1.65;;;;;;;19.29;53.81;101421.69;5018241;28;20041;-60
2023/08/10 09:23:49;;;;;;;3.15;1.63;;;;;;;19.35;53.76;101432.84;5014308;28;20029;-60
2023/08/10 09:26:19;;;;;;;6.75;2.33;;;;;;;19.51;56.37;101486.47;4999732;28;20054;-60
2023/08/10 09:28:47;;;;;;;5.30;2.10;;;;;;;19.69;53.89;101440.38;5001378;28;20045;-60
2023/08/10 09:31:13;;;;;;;5.40;1.75;;;;;;;19.63;52.17;101411.75;5013157;28;20045;-60
2023/08/10 09:33:38;;;;;;;6.35;2.13;;;;;;;19.54;53.42;101443.53;5015278;28;20090;-60
2023/08/10 09:36:05;;;;;;;10.27;2.13;;;;;;;19.59;53.84;101441.63;5018792;28;20362;-60
2023/08/10 09:38:32;;;;;;;5.90;2.10;;;;;;;19.71;54.73;101464.78;5013318;28;20422;-60
2023/08/10 09:41:07;;;;;;;7.60;2.33;;;;;;;19.97;54.66;101464.78;5016391;28;20045;-60
2023/08/10 09:43:32;;;;;;;8.32;2.60;;;;;;;19.98;53.00;101431.50;5014655;28;20040;-60
2023/08/10 09:46:04;;;;;;;7.00;2.25;;;;;;;19.97;52.45;101421.94;5017650;28;20049;-60
2023/08/10 09:48:34;;;;;;;4.55;1.95;;;;;;;20.08;53.20;101436.38;5015387;28;20148;-60
2023/08/10 09:51:02;;;;;;;5.18;1.70;;;;;;;20.12;52.44;101430.09;5015920;28;20037;-60
2023/08/10 09:53:28;;;;;;;6.60;2.10;;;;;;;20.16;51.57;101413.31;5019268;28;21834;-59
2023/08/10 09:55:54;;;;;;;7.47;1.98;;;;;;;20.25;51.75;101406.84;5018964;28;20038;-60
2023/08/10 09:58:20;;;;;;;6.10;2.20;;;;;;;20.34;51.21;101397.75;5008867;28;20129;-60
2023/08/10 10:00:45;;;;;;;5.20;2.15;;;;;;;20.38;51.49;101402.00;4994971;28;20092;-61
2023/08/10 10:03:11;;;;;;;4.22;2.28;;;;;;;20.45;51.29;101398.22;5018206;28;20054;-61
2023/08/10 10:05:37;;;;;;;4.53;1.80;;;;;;;20.52;51.67;101412.81;5014396;28;20056;-61
2023/08/10 10:08:06;;;;;;;6.97;2.15;;;;;;;20.60;52.18;101418.66;5015248;28;20108;-61
2023/08/10 10:10:35;;;;;;;5.18;1.90;;;;;;;20.63;51.32;101392.25;5014166;28;20033;-62
2023/08/10 10:13:03;;;;;;;3.88;1.98;;;;;;;20.67;50.98;101385.94;5014679;28;20845;-61
2023/08/10 10:15:30;;;;;;;9.68;2.65;;;;;;;20.70;50.11;101376.19;5016637;28;20140;-61
2023/08/10 10:17:56;;;;;;;5.53;1.92;;;;;;;20.70;50.07;101367.47;4995857;28;20107;-61
2023/08/10 10:20:22;;;;;;;3.30;1.80;;;;;;;20.76;49.33;101348.81;5006487;28;20030;-61
2023/08/10 10:22:47;;;;;;;4.43;2.13;;;;;;;20.86;48.64;101342.28;5015825;28;20029;-61
2023/08/10 10:25:15;;;;;;;6.32;2.13;;;;;;;20.84;48.89;101351.97;5009040;28;20045;-61
2023/08/10 10:27:40;;;;;;;7.18;2.30;;;;;;;20.90;49.08;101358.78;5008691;28;20363;-61
2023/08/10 10:30:15;;;;;;;3.80;2.30;;;;;;;21.05;49.43;101374.75;5017143;28;21014;-61
2023/08/10 10:32:49;;;;;;;6.97;2.97;;;;;;;20.90;48.15;101341.22;5012216;28;20040;-61
2023/08/10 10:35:31;;;;;;;9.38;2.53;;;;;;;21.07;47.88;101348.41;5009731;28;20056;-61
2023/08/10 10:37:58;;;;;;;5.00;2.67;;;;;;;21.09;48.26;101343.94;5012626;28;20044;-61
2023/08/10 10:40:24;;;;;;;4.45;2.42;;;;;;;21.01;48.11;101351.28;5010025;28;20041;-61
2023/08/10 10:43:06;;;;;;;4.57;2.55;;;;;;;21.15;48.29;101356.81;5018138;28;20045;-61
2023/08/10 10:45:42;;;;;;;6.22;2.38;;;;;;;21.33;48.13;101353.41;5010939;28;20041;-61
2023/08/10 10:48:12;;;;;;;4.30;2.45;;;;;;;21.21;47.82;101339.00;5018581;28;20041;-61
2023/08/10 10:50:37;;;;;;;4.53;2.08;;;;;;;21.34;48.15;101355.13;5012606;28;20073;-62
2023/08/10 10:53:05;;;;;;;6.57;2.78;;;;;;;21.56;47.61;101349.78;5018469;28;20184;-61
2023/08/10 10:55:40;;;;;;;6.50;3.53;;;;;;;21.62;46.47;101331.09;5013973;28;20132;-65
2023/08/10 10:58:07;;;;;;;7.50;4.68;;;;;;;21.57;45.30;101306.78;5017518;28;20099;-62
2023/08/10 11:00:36;;;;;;;10.02;3.35;;;;;;;21.62;46.32;101325.84;5005276;28;20419;-61
2023/08/10 11:03:03;;;;;;;6.07;2.97;;;;;;;21.77;47.22;101341.78;5003450;28;20025;-61
2023/08/10 11:05:29;;;;;;;6.95;2.75;;;;;;;21.69;45.61;101319.38;5015609;28;20048;-62
2023/08/10 11:07:55;;;;;;;3.75;2.85;;;;;;;21.62;45.50;101308.28;5010113;28;20733;-62
2023/08/10 11:10:21;;;;;;;4.57;2.58;;;;;;;21.58;45.77;101317.22;5016843;28;20061;-62
2023/08/10 11:12:48;;;;;;;5.32;2.45;;;;;;;21.60;45.89;101322.44;4994094;28;20479;-64
2023/08/10 11:15:15;;;;;;;10.13;3.10;;;;;;;21.77;46.97;101338.31;5009923;28;20040;-61
2023/08/10 11:17:42;;;;;;;3.60;2.30;;;;;;;21.95;46.54;101340.09;5008310;28;20178;-61
2023/08/10 11:20:11;;;;;;;5.70;2.20;;;;;;;22.20;46.66;101342.44;5011036;28;20034;-61
2023/08/10 11:22:38;;;;;;;5.90;2.65;;;;;;;21.99;44.74;101296.91;5015785;28;20558;-61